createdAt,value
2022-12-18T00:02:12.214Z,101780.95
2022-12-18T00:07:15.641Z,101789.86
2022-12-18T00:17:26.753Z,101803.06
2022-12-18T00:22:29.755Z,101808.05
2022-12-18T00:27:32.761Z,101821.79
2022-12-18T00:32:35.864Z,101828.77
2022-12-18T00:37:38.971Z,101830.34
2022-12-18T00:42:57.434Z,101832.64
2022-12-18T00:48:00.643Z,101841.40
2022-12-18T00:53:03.952Z,101847.73
2022-12-18T00:58:07.672Z,101854.60
2022-12-18T01:03:11.020Z,101859.71
2022-12-18T01:08:14.190Z,101861.73
2022-12-18T01:13:17.295Z,101859.02
2022-12-18T01:18:20.298Z,101855.57
2022-12-18T01:23:23.405Z,101861.03
2022-12-18T01:28:26.518Z,101866.34
2022-12-18T01:33:29.615Z,101886.59
2022-12-18T01:38:32.824Z,101890.45
2022-12-18T01:43:46.475Z,101900.80
2022-12-18T01:48:51.898Z,101904.16
2022-12-18T01:53:55.453Z,101904.56
2022-12-18T01:59:07.258Z,101906.14
2022-12-18T02:04:36.479Z,101901.95
2022-12-18T02:09:47.876Z,101906.14
2022-12-18T02:14:56.536Z,101910.83
2022-12-18T02:20:14.420Z,101914.70
2022-12-18T02:25:17.364Z,101925.53
2022-12-18T02:30:20.984Z,101927.79
2022-12-18T02:35:26.036Z,101931.61
2022-12-18T02:40:29.762Z,101931.45
2022-12-18T02:45:32.876Z,101932.50
2022-12-18T02:50:39.449Z,101942.61
2022-12-18T02:55:50.949Z,101956.55
2022-12-18T03:00:59.190Z,101965.98
2022-12-18T03:06:08.013Z,101966.92
2022-12-18T03:11:12.244Z,101972.55
2022-12-18T03:16:26.762Z,101978.67
2022-12-18T03:21:33.309Z,101990.00
2022-12-18T03:26:38.769Z,101989.15
2022-12-18T03:31:43.203Z,101989.68
2022-12-18T03:36:46.515Z,101995.09
2022-12-18T03:41:57.199Z,101992.16
2022-12-18T03:47:29.804Z,101998.25
2022-12-18T03:52:42.219Z,102003.98
2022-12-18T03:57:45.733Z,102011.28
2022-12-18T04:02:53.179Z,102015.63
2022-12-18T04:07:57.372Z,102014.95
2022-12-18T04:13:00.373Z,102020.72
2022-12-18T04:18:03.682Z,102026.11
2022-12-18T04:23:06.789Z,102032.55
2022-12-18T04:28:09.892Z,102034.14
2022-12-18T04:33:13.510Z,102037.63
2022-12-18T04:38:16.720Z,102045.46
2022-12-18T04:43:19.951Z,102053.64
2022-12-18T04:48:23.237Z,102066.14
2022-12-18T04:53:26.138Z,102070.81
2022-12-18T04:58:29.242Z,102066.41
2022-12-18T05:03:32.713Z,102067.26
2022-12-18T05:08:35.760Z,102068.42
2022-12-18T05:13:39.675Z,102076.02
2022-12-18T05:18:43.096Z,102077.67
2022-12-18T05:23:46.817Z,102083.66
2022-12-18T05:28:49.819Z,102090.02
2022-12-18T05:33:52.823Z,102097.04
2022-12-18T05:38:55.926Z,102102.16
2022-12-18T05:43:59.749Z,102108.86
2022-12-18T05:49:02.870Z,102115.06
2022-12-18T05:54:05.960Z,102120.39
2022-12-18T05:59:11.113Z,102124.28
2022-12-18T06:04:14.462Z,102128.35
2022-12-18T06:09:17.528Z,102132.44
2022-12-18T06:14:20.633Z,102135.69
2022-12-18T06:19:23.743Z,102143.98
2022-12-18T06:24:27.048Z,102148.23
2022-12-18T06:29:30.152Z,102148.32
2022-12-18T06:34:33.875Z,102154.53
2022-12-18T06:39:36.980Z,102158.31
2022-12-18T06:44:40.088Z,102167.50
2022-12-18T06:49:43.196Z,102171.13
2022-12-18T06:54:46.213Z,102179.12
2022-12-18T06:59:49.813Z,102189.75
2022-12-18T07:04:52.836Z,102197.70
2022-12-18T07:09:55.962Z,102205.83
2022-12-18T07:14:58.991Z,102213.11
2022-12-18T07:20:02.538Z,102220.07
2022-12-18T07:25:06.670Z,102227.88
2022-12-18T07:30:10.693Z,102235.33
2022-12-18T07:35:14.011Z,102239.08
2022-12-18T07:40:17.519Z,102243.67
2022-12-18T07:45:20.726Z,102246.37
2022-12-18T07:50:25.267Z,102249.82
2022-12-18T07:55:28.507Z,102259.05
2022-12-18T08:00:32.820Z,102251.45
2022-12-18T08:05:36.323Z,102253.03
2022-12-18T08:10:40.458Z,102256.86
2022-12-18T08:15:43.660Z,102258.15
2022-12-18T08:20:46.866Z,102258.50
2022-12-18T08:25:51.201Z,102273.27
2022-12-18T08:30:54.450Z,102282.77
2022-12-18T08:35:59.562Z,102282.38
2022-12-18T08:41:03.499Z,102292.67
2022-12-18T08:46:06.640Z,102301.48
2022-12-18T08:51:10.923Z,102305.33
2022-12-18T08:56:14.751Z,102315.03
2022-12-18T09:01:18.514Z,102321.42
2022-12-18T09:06:22.702Z,102331.91
2022-12-18T09:11:27.034Z,102346.98
2022-12-18T09:16:33.035Z,102348.83
2022-12-18T09:21:37.502Z,102334.19
2022-12-18T09:26:40.853Z,102335.35
2022-12-18T09:31:46.929Z,102347.33
2022-12-18T09:36:50.447Z,102349.27
2022-12-18T09:41:56.107Z,102351.77
2022-12-18T09:47:09.658Z,102355.14
2022-12-18T09:52:15.835Z,102357.08
2022-12-18T09:57:21.504Z,102361.17
2022-12-18T10:02:26.041Z,102354.34
2022-12-18T10:07:35.288Z,102341.89
2022-12-18T10:13:04.050Z,102334.27
2022-12-18T10:18:21.705Z,102341.11
2022-12-18T10:23:47.846Z,102347.68
2022-12-18T10:28:52.530Z,102343.41
2022-12-18T10:33:55.738Z,102339.12
2022-12-18T10:39:18.049Z,102339.13
2022-12-18T10:44:21.512Z,102339.05
2022-12-18T10:49:27.498Z,102336.77
2022-12-18T10:54:32.112Z,102331.68
2022-12-18T10:59:50.687Z,102340.23
2022-12-18T11:04:54.304Z,102348.17
2022-12-18T11:10:05.096Z,102337.03
2022-12-18T11:15:17.463Z,102335.24
2022-12-18T11:20:23.999Z,102339.84
2022-12-18T11:25:33.339Z,102339.42
2022-12-18T11:30:38.345Z,102349.77
2022-12-18T11:35:41.405Z,102348.56
2022-12-18T11:40:47.170Z,102350.34
2022-12-18T11:45:53.144Z,102356.23
2022-12-18T11:50:57.987Z,102353.02
2022-12-18T11:56:01.195Z,102352.05
2022-12-18T12:01:23.277Z,102362.57
2022-12-18T12:06:34.441Z,102373.05
2022-12-18T12:12:01.738Z,102379.18
2022-12-18T12:17:08.198Z,102381.70
2022-12-18T12:22:19.702Z,102389.58
2022-12-18T12:27:26.695Z,102394.70
2022-12-18T12:32:35.638Z,102402.84
2022-12-18T12:37:56.868Z,102404.35
2022-12-18T12:43:13.797Z,102401.29
2022-12-18T12:48:32.733Z,102392.52
2022-12-18T12:53:37.727Z,102392.67
2022-12-18T12:59:01.750Z,102392.81
2022-12-18T13:04:05.083Z,102391.71
2022-12-18T13:09:08.957Z,102393.58
2022-12-18T13:14:33.167Z,102408.70
2022-12-18T13:19:36.875Z,102409.67
2022-12-18T13:24:39.977Z,102414.84
2022-12-18T13:29:47.422Z,102426.80
2022-12-18T13:35:11.382Z,102424.63
2022-12-18T13:40:43.466Z,102430.48
2022-12-18T13:46:06.754Z,102436.52
2022-12-18T13:51:11.178Z,102432.94
2022-12-18T13:56:18.287Z,102433.52
2022-12-18T14:01:25.661Z,102445.42
2022-12-18T14:06:29.301Z,102459.05
2022-12-18T14:11:34.976Z,102465.86
2022-12-18T14:16:42.089Z,102466.39
2022-12-18T14:21:47.732Z,102471.27
2022-12-18T14:26:51.456Z,102479.45
2022-12-18T14:32:09.403Z,102487.63
2022-12-18T14:37:16.912Z,102485.36
2022-12-18T14:42:20.021Z,102492.50
2022-12-18T14:47:23.740Z,102491.61
2022-12-18T14:52:28.997Z,102495.80
2022-12-18T14:57:36.915Z,102495.63
2022-12-18T15:02:40.327Z,102495.10
2022-12-18T15:07:44.968Z,102496.50
2022-12-18T15:12:50.742Z,102499.64
2022-12-18T15:17:59.581Z,102497.72
2022-12-18T15:23:02.884Z,102499.10
2022-12-18T15:28:17.462Z,102501.91
2022-12-18T15:33:25.962Z,102498.95
2022-12-18T15:38:29.112Z,102501.20
2022-12-18T15:43:35.993Z,102505.90
2022-12-18T15:48:43.710Z,102503.46
2022-12-18T15:53:47.738Z,102495.27
2022-12-18T15:58:50.840Z,102494.21
2022-12-18T16:03:55.133Z,102500.14
2022-12-18T16:08:58.587Z,102499.61
2022-12-18T16:14:01.507Z,102494.73
2022-12-18T16:19:05.107Z,102499.08
2022-12-18T16:24:14.559Z,102507.45
2022-12-18T16:29:17.564Z,102507.10
2022-12-18T16:34:27.099Z,102502.39
2022-12-18T16:39:33.194Z,102511.98
2022-12-18T16:44:37.574Z,102507.79
2022-12-18T16:49:40.637Z,102500.11
2022-12-18T16:54:43.740Z,102502.73
2022-12-18T16:59:47.264Z,102504.31
2022-12-18T17:04:50.467Z,102509.36
2022-12-18T17:09:54.509Z,102520.16
2022-12-18T17:14:57.494Z,102535.52
2022-12-18T17:20:01.223Z,102547.88
2022-12-18T17:25:07.599Z,102546.30
2022-12-18T17:30:12.187Z,102533.08
2022-12-18T17:35:15.557Z,102530.27
2022-12-18T17:40:19.064Z,102532.70
2022-12-18T17:45:22.373Z,102519.29
2022-12-18T17:50:26.198Z,102503.27
2022-12-18T17:55:29.918Z,102504.14
2022-12-18T18:00:34.149Z,102499.27
2022-12-18T18:05:37.357Z,102495.44
2022-12-18T18:10:41.182Z,102507.98
2022-12-18T18:15:45.326Z,102499.11
2022-12-18T18:20:49.465Z,102485.34
2022-12-18T18:25:55.820Z,102480.83
2022-12-18T18:30:59.545Z,102490.06
2022-12-18T18:36:03.058Z,102499.47
2022-12-18T18:41:06.673Z,102494.77
2022-12-18T18:46:11.875Z,102504.35
2022-12-18T18:51:21.500Z,102512.02
2022-12-18T19:01:52.937Z,102509.54
2022-12-18T19:06:56.206Z,102502.72
2022-12-18T19:12:18.862Z,102504.06
2022-12-18T19:17:26.389Z,102509.60
2022-12-18T19:22:35.304Z,102504.83
2022-12-18T19:27:40.327Z,102508.91
2022-12-18T19:32:44.712Z,102515.23
2022-12-18T19:37:48.803Z,102524.66
2022-12-18T19:42:52.248Z,102534.59
2022-12-18T19:47:59.737Z,102535.67
2022-12-18T19:53:07.573Z,102536.73
2022-12-18T19:58:13.033Z,102547.73
2022-12-18T20:03:25.422Z,102549.89
2022-12-18T20:08:33.994Z,102540.10
2022-12-18T20:13:37.676Z,102538.87
2022-12-18T20:18:41.585Z,102536.41
2022-12-18T20:23:45.969Z,102531.53
2022-12-18T20:28:49.282Z,102534.09
2022-12-18T20:33:53.388Z,102534.41
2022-12-18T20:39:00.569Z,102526.42
2022-12-18T20:44:05.867Z,102527.25
2022-12-18T20:49:13.094Z,102530.84
2022-12-18T20:54:16.479Z,102544.46
2022-12-18T20:59:20.014Z,102550.64
2022-12-18T21:04:23.815Z,102544.11
2022-12-18T21:09:27.338Z,102530.27
2022-12-18T21:14:34.128Z,102514.92
2022-12-18T21:19:37.644Z,102504.15
2022-12-18T21:24:41.158Z,102498.39
2022-12-18T21:29:44.265Z,102492.81
2022-12-18T21:34:48.549Z,102495.41
2022-12-18T21:39:52.213Z,102489.00
2022-12-18T21:44:55.318Z,102486.55
2022-12-18T21:49:58.456Z,102498.09
2022-12-18T21:55:08.466Z,102510.20
2022-12-18T22:00:18.971Z,102519.33
2022-12-18T22:05:23.617Z,102518.28
2022-12-18T22:10:26.933Z,102514.45
2022-12-18T22:15:30.373Z,102515.13
2022-12-18T22:20:33.446Z,102519.80
2022-12-18T22:25:39.263Z,102515.40
2022-12-18T22:30:43.469Z,102511.69
2022-12-18T22:35:46.965Z,102503.65
2022-12-18T22:40:50.781Z,102503.64
2022-12-18T22:45:54.147Z,102508.10
2022-12-18T22:50:59.009Z,102507.70
2022-12-18T22:56:03.286Z,102508.81
2022-12-18T23:01:07.240Z,102511.11
2022-12-18T23:06:10.814Z,102513.23
2022-12-18T23:11:14.948Z,102520.56
2022-12-18T23:16:20.842Z,102521.36
2022-12-18T23:21:24.431Z,102515.60
2022-12-18T23:26:28.873Z,102513.90
2022-12-18T23:31:33.581Z,102514.12
2022-12-18T23:36:45.715Z,102517.88
2022-12-18T23:41:49.964Z,102514.31
2022-12-18T23:46:53.269Z,102512.54
2022-12-18T23:51:56.480Z,102509.72
2022-12-18T23:56:59.585Z,102504.58
